CEG weather

Hawarden Airport
Hawarden, Wales, United Kingdom

Public forecast

Using degrees Celsius for public forecast. Weather courtesy of forecast.io.

METAR (pilot weather report)

Retrieved 2019/04/22 17:50 UTC (2 hours ago):

EGNR 221750Z 11009KT CAVOK 21/08 Q1001

TAF (pilot weather forecast)

Forecast is more than 12 hours old.

Retrieved 2016/01/23 12:00 UTC (3 years ago):

TAF EGNR 231059Z 2312/2319 15009KT 9999 FEW020 BECMG 2316/2319 BKN014 TEMPO 2317/2319 6000 RA BKN008